createdAt,value
2022-11-14T00:00:22.124Z,100963.63
2022-11-14T00:01:08.214Z,100961.06
2022-11-14T00:01:48.729Z,100961.81
2022-11-14T00:02:30.426Z,100956.59
2022-11-14T00:03:15.401Z,100954.78
2022-11-14T00:04:07.919Z,100965.25
2022-11-14T00:05:21.700Z,100961.78
2022-11-14T00:06:25.460Z,100964.47
2022-11-14T00:08:53.516Z,100955.91
2022-11-14T00:10:56.234Z,100955.09
2022-11-14T00:12:23.142Z,100961.19
2022-11-14T00:13:39.139Z,100952.34
2022-11-14T00:14:26.832Z,100956.94
2022-11-14T00:15:10.772Z,100962.91
2022-11-14T00:15:55.663Z,100957.66
2022-11-14T00:16:38.630Z,100946.94
2022-11-14T00:17:19.282Z,100955.72
2022-11-14T00:18:01.061Z,100954.97
2022-11-14T00:18:41.323Z,100956.66
2022-11-14T00:19:26.272Z,100950.91
2022-11-14T00:20:11.358Z,100958.66
2022-11-14T00:20:54.296Z,100948.00
2022-11-14T00:21:35.087Z,100949.69
2022-11-14T00:22:15.394Z,100958.50
2022-11-14T00:22:57.309Z,100953.97
2022-11-14T00:23:38.059Z,100958.34
2022-11-14T00:24:19.355Z,100958.25
2022-11-14T00:24:59.878Z,100953.03
2022-11-14T00:25:41.435Z,100956.59
2022-11-14T00:26:21.933Z,100953.06
2022-11-14T00:27:02.437Z,100947.72
2022-11-14T00:27:43.927Z,100952.16
2022-11-14T00:28:24.474Z,100953.22
2022-11-14T00:29:07.179Z,100954.84
2022-11-14T00:29:47.732Z,100953.19
2022-11-14T00:30:29.213Z,100946.13
2022-11-14T00:31:09.591Z,100952.19
2022-11-14T00:31:52.143Z,100959.22
2022-11-14T00:32:36.103Z,100948.63
2022-11-14T00:33:22.135Z,100928.69
2022-11-14T00:34:08.154Z,100949.50
2022-11-14T00:34:54.074Z,100952.16
2022-11-14T00:35:36.915Z,100926.06
2022-11-14T00:36:21.655Z,100954.84
2022-11-14T00:37:06.231Z,100948.72
2022-11-14T00:37:58.554Z,100931.25
2022-11-14T00:38:43.192Z,100921.56
2022-11-14T00:39:29.806Z,100944.28
2022-11-14T00:40:18.037Z,100943.34
2022-11-14T00:41:10.650Z,100937.22
2022-11-14T00:41:54.237Z,100935.34
2022-11-14T00:42:39.226Z,100920.53
2022-11-14T00:43:19.803Z,100935.34
2022-11-14T00:44:00.738Z,100910.09
2022-11-14T00:44:44.053Z,100933.91
2022-11-14T00:45:24.412Z,100927.69
2022-11-14T00:46:06.400Z,100935.63
2022-11-14T00:46:47.055Z,100922.38
2022-11-14T00:47:27.472Z,100932.09
2022-11-14T00:48:09.278Z,100926.81
2022-11-14T00:48:49.904Z,100933.13
2022-11-14T00:49:32.919Z,100922.31
2022-11-14T00:50:14.344Z,100928.53
2022-11-14T00:50:58.374Z,100932.81
2022-11-14T00:51:38.767Z,100925.94
2022-11-14T00:52:19.436Z,100925.94
2022-11-14T00:53:02.288Z,100917.19
2022-11-14T00:53:42.608Z,100918.94
2022-11-14T00:54:24.022Z,100925.84
2022-11-14T00:55:05.624Z,100921.72
2022-11-14T00:55:46.082Z,100917.25
2022-11-14T00:56:27.270Z,100916.31
2022-11-14T00:57:07.534Z,100907.63
2022-11-14T00:57:49.254Z,100910.28
2022-11-14T00:58:29.829Z,100920.69
2022-11-14T00:59:11.753Z,100922.56
2022-11-14T00:59:55.632Z,100913.75
2022-11-14T01:00:37.464Z,100920.00
2022-11-14T01:01:18.425Z,100928.91
2022-11-14T01:01:59.985Z,100920.84
2022-11-14T01:02:40.564Z,100916.56
2022-11-14T01:03:22.283Z,100914.97
2022-11-14T01:04:02.916Z,100925.66
2022-11-14T01:04:44.309Z,100922.13
2022-11-14T01:05:25.254Z,100923.00
2022-11-14T01:06:07.805Z,100924.91
2022-11-14T01:06:49.240Z,100916.09
2022-11-14T01:07:29.746Z,100925.81
2022-11-14T01:08:11.366Z,100917.81
2022-11-14T01:08:52.172Z,100914.16
2022-11-14T01:09:33.790Z,100917.66
2022-11-14T01:10:14.200Z,100917.63
2022-11-14T01:10:56.299Z,100917.75
2022-11-14T01:11:36.988Z,100916.94
2022-11-14T01:12:18.255Z,100917.03
2022-11-14T01:12:58.509Z,100915.56
2022-11-14T01:13:39.806Z,100904.06
2022-11-14T01:14:21.346Z,100918.13
2022-11-14T01:15:05.189Z,100911.03
2022-11-14T01:15:48.281Z,100910.94
2022-11-14T01:16:28.639Z,100904.94
2022-11-14T01:17:10.493Z,100908.53
2022-11-14T01:17:51.149Z,100901.69
2022-11-14T01:18:31.788Z,100905.00
2022-11-14T01:19:13.275Z,100912.06
2022-11-14T01:19:53.654Z,100910.38
2022-11-14T01:20:34.247Z,100912.97
2022-11-14T01:21:17.854Z,100900.81
2022-11-14T01:22:01.805Z,100911.59
2022-11-14T01:22:42.863Z,100904.69
2022-11-14T01:23:24.084Z,100909.16
2022-11-14T01:24:05.303Z,100905.63
2022-11-14T01:24:46.202Z,100905.69
2022-11-14T01:25:26.296Z,100903.94
2022-11-14T01:26:09.223Z,100890.00
2022-11-14T01:26:50.291Z,100900.50
2022-11-14T01:27:31.074Z,100903.38
2022-11-14T01:28:19.504Z,100905.13
2022-11-14T01:28:59.513Z,100898.06
2022-11-14T01:29:40.774Z,100898.34
2022-11-14T01:30:22.235Z,100900.03
2022-11-14T01:31:11.915Z,100903.75
2022-11-14T01:31:52.325Z,100900.34
2022-11-14T01:32:32.664Z,100897.75
2022-11-14T01:33:13.993Z,100895.13
2022-11-14T01:33:54.982Z,100901.28
2022-11-14T01:34:35.949Z,100896.00
2022-11-14T01:35:16.100Z,100904.03
2022-11-14T01:35:59.334Z,100888.97
2022-11-14T01:36:40.301Z,100890.75
2022-11-14T01:37:20.629Z,100890.75
2022-11-14T01:38:01.204Z,100892.66
2022-11-14T01:38:42.470Z,100898.72
2022-11-14T01:39:23.018Z,100895.09
2022-11-14T01:40:04.519Z,100894.19
2022-11-14T01:40:45.607Z,100891.47
2022-11-14T01:41:26.852Z,100886.38
2022-11-14T01:42:06.904Z,100888.19
2022-11-14T01:43:21.638Z,100880.19
2022-11-14T01:44:01.677Z,100881.28
2022-11-14T01:44:46.481Z,100882.00
2022-11-14T01:45:53.514Z,100884.91
2022-11-14T01:46:37.307Z,100878.59
2022-11-14T01:47:20.980Z,100880.38
2022-11-14T01:48:00.962Z,100884.09
2022-11-14T01:48:46.654Z,100878.75
2022-11-14T01:49:33.654Z,100876.09
2022-11-14T01:50:14.237Z,100878.56
2022-11-14T01:50:58.132Z,100876.72
2022-11-14T01:51:43.086Z,100871.56
2022-11-14T01:52:26.898Z,100871.47
2022-11-14T01:53:06.907Z,100877.56
2022-11-14T01:53:50.750Z,100872.22
2022-11-14T01:54:35.634Z,100879.38
2022-11-14T01:55:15.566Z,100862.78
2022-11-14T01:56:00.393Z,100853.19
2022-11-14T01:56:46.371Z,100869.72
2022-11-14T01:57:35.110Z,100868.59
2022-11-14T01:58:16.508Z,100876.59
2022-11-14T01:59:03.519Z,100870.44
2022-11-14T01:59:49.968Z,100866.81
2022-11-14T02:00:30.323Z,100865.78
2022-11-14T02:01:13.162Z,100847.72
2022-11-14T02:01:55.944Z,100864.38
2022-11-14T02:02:37.120Z,100868.09
2022-11-14T02:03:18.944Z,100868.91
2022-11-14T02:04:04.217Z,100868.84
2022-11-14T02:04:48.701Z,100860.91
2022-11-14T02:05:30.839Z,100867.22
2022-11-14T02:06:15.133Z,100866.50
2022-11-14T02:06:59.060Z,100871.22
2022-11-14T02:07:41.745Z,100872.81
2022-11-14T02:08:23.684Z,100872.88
2022-11-14T02:09:07.782Z,100873.03
2022-11-14T02:09:49.262Z,100873.13
2022-11-14T02:10:29.646Z,100866.81
2022-11-14T02:11:11.615Z,100868.56
2022-11-14T02:11:54.868Z,100865.16
2022-11-14T02:12:37.349Z,100874.91
2022-11-14T02:13:17.847Z,100863.25
2022-11-14T02:14:00.223Z,100864.16
2022-11-14T02:14:42.152Z,100867.72
2022-11-14T02:15:24.214Z,100863.38
2022-11-14T02:16:04.758Z,100865.16
2022-11-14T02:17:07.207Z,100866.97
2022-11-14T02:17:47.775Z,100870.31
2022-11-14T02:18:29.406Z,100867.63
2022-11-14T02:19:10.210Z,100866.63
2022-11-14T02:19:52.301Z,100872.00
2022-11-14T02:20:38.172Z,100850.34
2022-11-14T02:21:18.444Z,100877.59
2022-11-14T02:21:59.822Z,100870.66
2022-11-14T02:22:42.466Z,100868.09
2022-11-14T02:23:27.760Z,100845.34
2022-11-14T02:24:09.948Z,100861.88
2022-11-14T02:24:51.236Z,100851.28
2022-11-14T02:25:31.666Z,100861.00
2022-11-14T02:26:11.905Z,100859.16
2022-11-14T02:26:53.258Z,100858.34
2022-11-14T02:27:34.846Z,100860.88
2022-11-14T02:28:15.275Z,100853.72
2022-11-14T02:28:57.434Z,100855.72
2022-11-14T02:29:37.556Z,100854.91
2022-11-14T02:30:20.403Z,100847.75
2022-11-14T02:31:01.533Z,100849.47
2022-11-14T02:31:41.500Z,100852.16
2022-11-14T02:32:22.820Z,100854.09
2022-11-14T02:33:11.201Z,100856.69
2022-11-14T02:33:52.783Z,100855.75
2022-11-14T02:34:33.154Z,100857.63
2022-11-14T02:35:13.723Z,100852.34
2022-11-14T02:35:55.995Z,100852.16
2022-11-14T02:36:36.051Z,100832.13
2022-11-14T02:37:16.391Z,100859.13
2022-11-14T02:37:57.697Z,100849.53
2022-11-14T02:38:37.845Z,100848.59
2022-11-14T02:39:18.067Z,100848.66
2022-11-14T02:39:59.411Z,100851.13
2022-11-14T02:40:39.435Z,100844.09
2022-11-14T02:41:20.702Z,100855.56
2022-11-14T02:42:00.865Z,100848.50
2022-11-14T02:42:41.060Z,100848.50
2022-11-14T02:43:22.545Z,100841.56
2022-11-14T02:44:02.672Z,100854.56
2022-11-14T02:44:42.976Z,100856.25
2022-11-14T02:45:24.029Z,100855.28
2022-11-14T02:46:05.971Z,100857.94
2022-11-14T02:46:46.194Z,100849.03
2022-11-14T02:47:27.730Z,100852.38
2022-11-14T02:48:07.765Z,100847.97
2022-11-14T02:48:49.053Z,100853.25
2022-11-14T02:49:29.399Z,100855.03
2022-11-14T02:50:10.139Z,100850.72
2022-11-14T02:50:51.864Z,100857.06
2022-11-14T02:51:33.384Z,100857.03
2022-11-14T02:52:14.530Z,100851.75
2022-11-14T02:52:54.708Z,100853.72
2022-11-14T02:53:35.097Z,100838.03
2022-11-14T02:54:16.455Z,100848.59
2022-11-14T02:54:56.479Z,100851.28
2022-11-14T02:55:36.828Z,100852.38
2022-11-14T02:56:18.246Z,100858.47
2022-11-14T02:56:58.138Z,100846.13
2022-11-14T02:57:39.727Z,100853.06
2022-11-14T02:58:19.832Z,100850.28
2022-11-14T02:59:00.165Z,100844.84
2022-11-14T02:59:41.526Z,100848.34
2022-11-14T03:00:21.787Z,100855.38
2022-11-14T03:02:03.049Z,100850.75
2022-11-14T03:02:44.140Z,100853.41
2022-11-14T03:03:24.471Z,100846.31
2022-11-14T03:04:05.370Z,100841.00
2022-11-14T03:04:46.619Z,100841.00
2022-11-14T03:05:26.855Z,100848.19
2022-11-14T03:06:08.220Z,100843.84
2022-11-14T03:06:49.671Z,100841.19
2022-11-14T03:07:30.116Z,100839.34
2022-11-14T03:08:11.225Z,100843.72
2022-11-14T03:08:51.534Z,100842.88
2022-11-14T03:09:31.915Z,100848.47
2022-11-14T03:10:13.940Z,100835.25
2022-11-14T03:10:54.843Z,100833.41
2022-11-14T03:11:35.041Z,100835.19
2022-11-14T03:12:17.736Z,100837.00
2022-11-14T03:12:58.455Z,100836.06
2022-11-14T03:13:39.733Z,100835.88
2022-11-14T03:14:20.094Z,100829.03
2022-11-14T03:15:01.879Z,100809.06
2022-11-14T03:15:41.970Z,100833.59
2022-11-14T03:16:23.760Z,100836.97
2022-11-14T03:17:04.111Z,100830.91
2022-11-14T03:17:44.341Z,100833.56
2022-11-14T03:18:25.714Z,100838.06
2022-11-14T03:19:05.746Z,100827.53
2022-11-14T03:19:46.127Z,100829.47
2022-11-14T03:20:27.574Z,100823.47
2022-11-14T03:21:08.774Z,100831.22
2022-11-14T03:21:51.260Z,100830.28
2022-11-14T03:22:31.554Z,100830.22
2022-11-14T03:23:12.811Z,100838.00
2022-11-14T03:23:52.954Z,100834.59
2022-11-14T03:24:34.200Z,100830.03
2022-11-14T03:25:14.463Z,100833.47
2022-11-14T03:25:54.816Z,100831.56
2022-11-14T03:26:36.190Z,100830.56
2022-11-14T03:27:16.335Z,100831.44
2022-11-14T03:27:57.456Z,100824.28
2022-11-14T03:28:38.608Z,100824.28
2022-11-14T03:29:18.791Z,100830.56
2022-11-14T03:30:00.082Z,100812.03
2022-11-14T03:30:40.240Z,100833.28
2022-11-14T03:31:20.413Z,100829.03
2022-11-14T03:32:01.736Z,100813.19
2022-11-14T03:32:41.799Z,100829.78
2022-11-14T03:33:22.147Z,100823.81
2022-11-14T03:34:03.431Z,100824.66
2022-11-14T03:34:43.761Z,100820.50
2022-11-14T03:35:24.332Z,100821.47
2022-11-14T03:36:06.775Z,100813.66
2022-11-14T03:36:47.202Z,100815.44
2022-11-14T03:37:28.973Z,100823.41
2022-11-14T03:38:10.042Z,100812.06
2022-11-14T03:38:50.527Z,100811.28
2022-11-14T03:39:31.039Z,100813.06
2022-11-14T03:40:12.887Z,100807.16
2022-11-14T03:40:53.349Z,100812.41
2022-11-14T03:41:33.881Z,100812.84
2022-11-14T03:42:15.045Z,100811.09
2022-11-14T03:42:57.030Z,100804.16
2022-11-14T03:43:37.299Z,100814.75
2022-11-14T03:44:18.743Z,100807.72
2022-11-14T03:44:58.984Z,100807.78
2022-11-14T03:45:39.445Z,100807.72
2022-11-14T03:46:21.184Z,100809.44
2022-11-14T03:47:01.546Z,100800.56
2022-11-14T03:47:42.599Z,100789.50
2022-11-14T03:48:22.786Z,100802.91
2022-11-14T03:49:04.450Z,100800.06
2022-11-14T03:49:44.996Z,100801.97
2022-11-14T03:50:26.355Z,100796.66
2022-11-14T03:51:06.414Z,100793.94
2022-11-14T03:51:46.864Z,100788.66
2022-11-14T03:52:29.637Z,100800.06
2022-11-14T03:53:09.740Z,100786.25
2022-11-14T03:53:49.845Z,100797.44
2022-11-14T03:54:31.057Z,100795.59
2022-11-14T03:55:11.395Z,100793.94
2022-11-14T03:55:51.795Z,100792.16
2022-11-14T03:56:33.169Z,100794.69
2022-11-14T03:57:13.311Z,100798.31
2022-11-14T03:57:54.580Z,100793.78
2022-11-14T03:58:34.743Z,100799.06
2022-11-14T03:59:16.084Z,100793.78
2022-11-14T03:59:55.990Z,100800.69
2022-11-14T04:00:37.591Z,100790.00
2022-11-14T04:01:17.718Z,100796.91
2022-11-14T04:01:59.115Z,100794.44
2022-11-14T04:02:39.367Z,100790.88
2022-11-14T04:03:19.656Z,100797.97
2022-11-14T04:04:00.858Z,100799.69
2022-11-14T04:04:40.786Z,100795.28
2022-11-14T04:05:22.143Z,100789.28
2022-11-14T04:06:03.109Z,100787.63
2022-11-14T04:06:44.371Z,100798.31
2022-11-14T04:07:24.448Z,100799.31
2022-11-14T04:08:06.938Z,100791.25
2022-11-14T04:08:48.207Z,100794.75
2022-11-14T04:09:28.448Z,100788.50
2022-11-14T04:10:08.961Z,100790.38
2022-11-14T04:10:50.578Z,100793.69
2022-11-14T04:11:30.784Z,100787.50
2022-11-14T04:12:15.720Z,100791.91
2022-11-14T04:12:55.995Z,100788.22
2022-11-14T04:13:37.434Z,100790.84
2022-11-14T04:14:17.555Z,100796.03
2022-11-14T04:14:58.984Z,100787.91
2022-11-14T04:15:39.425Z,100792.22
2022-11-14T04:16:19.667Z,100788.66
2022-11-14T04:17:00.892Z,100786.88
2022-11-14T04:17:41.120Z,100785.09
2022-11-14T04:18:21.547Z,100787.78
2022-11-14T04:19:02.735Z,100784.16
2022-11-14T04:19:42.827Z,100789.47
2022-11-14T04:20:23.327Z,100785.00
2022-11-14T04:21:04.799Z,100786.78
2022-11-14T04:21:45.122Z,100785.91
2022-11-14T04:22:26.426Z,100778.81
2022-11-14T04:23:07.916Z,100788.44
2022-11-14T04:23:49.291Z,100789.13
2022-11-14T04:24:29.691Z,100790.09
2022-11-14T04:25:11.166Z,100796.97
2022-11-14T04:25:51.252Z,100799.63
2022-11-14T04:26:31.451Z,100794.16
2022-11-14T04:27:12.762Z,100797.75
2022-11-14T04:27:52.863Z,100788.88
2022-11-14T04:28:33.364Z,100792.31
2022-11-14T04:29:14.755Z,100792.41
2022-11-14T04:29:54.999Z,100791.66
2022-11-14T04:30:35.332Z,100794.31
2022-11-14T04:31:16.510Z,100792.44
2022-11-14T04:31:56.469Z,100797.81
2022-11-14T04:32:37.838Z,100790.66
2022-11-14T04:33:17.950Z,100789.75
2022-11-14T04:33:59.397Z,100793.31
2022-11-14T04:34:39.384Z,100795.34
2022-11-14T04:35:20.651Z,100786.66
2022-11-14T04:36:00.767Z,100786.56
2022-11-14T04:36:42.041Z,100794.50
2022-11-14T04:37:22.004Z,100791.94
2022-11-14T04:38:03.725Z,100790.16
2022-11-14T04:38:45.303Z,100785.75
2022-11-14T04:39:26.732Z,100799.81
2022-11-14T04:40:08.308Z,100784.88
2022-11-14T04:40:49.981Z,100791.19
2022-11-14T04:41:31.060Z,100787.81
2022-11-14T04:42:10.993Z,100792.13
2022-11-14T04:42:52.183Z,100789.34
2022-11-14T04:43:32.498Z,100777.16
2022-11-14T04:44:12.946Z,100787.56
2022-11-14T04:44:54.373Z,100785.78
2022-11-14T04:45:34.396Z,100790.09
2022-11-14T04:46:15.726Z,100790.06
2022-11-14T04:46:55.923Z,100789.03
2022-11-14T04:47:37.111Z,100782.78
2022-11-14T04:48:17.305Z,100791.56
2022-11-14T04:48:58.490Z,100783.59
2022-11-14T04:49:38.623Z,100783.84
2022-11-14T04:50:18.928Z,100779.59
2022-11-14T04:51:00.230Z,100781.34
2022-11-14T04:51:40.616Z,100778.66
2022-11-14T04:52:20.767Z,100780.41
2022-11-14T04:53:02.148Z,100782.19
2022-11-14T04:53:42.406Z,100778.69
2022-11-14T04:54:24.009Z,100772.53
2022-11-14T04:55:05.816Z,100781.34
2022-11-14T04:55:46.219Z,100772.56
2022-11-14T04:56:27.627Z,100778.72
2022-11-14T04:57:07.718Z,100776.03
2022-11-14T04:57:48.110Z,100776.03
2022-11-14T04:58:29.926Z,100775.09
2022-11-14T04:59:10.228Z,100768.25
2022-11-14T04:59:50.503Z,100777.16
2022-11-14T05:00:32.730Z,100781.50
2022-11-14T05:01:14.408Z,100779.91
2022-11-14T05:01:55.638Z,100771.13
2022-11-14T05:02:35.738Z,100779.09
2022-11-14T05:03:16.055Z,100779.06
2022-11-14T05:03:57.452Z,100780.72
2022-11-14T05:04:37.644Z,100777.19
2022-11-14T05:05:17.919Z,100781.63
2022-11-14T05:06:01.419Z,100782.47
2022-11-14T05:06:41.916Z,100785.16
2022-11-14T05:07:22.059Z,100778.25
2022-11-14T05:08:03.375Z,100786.94
2022-11-14T05:08:43.490Z,100780.78
2022-11-14T05:09:25.140Z,100782.53
2022-11-14T05:10:07.492Z,100780.72
2022-11-14T05:10:47.856Z,100778.94
2022-11-14T05:11:29.552Z,100785.91
2022-11-14T05:12:09.767Z,100774.50
2022-11-14T05:12:54.499Z,100770.25
2022-11-14T05:13:35.005Z,100779.84
2022-11-14T05:14:16.480Z,100776.31
2022-11-14T05:14:56.621Z,100772.69
2022-11-14T05:15:37.771Z,100772.81
2022-11-14T05:16:17.719Z,100773.94
2022-11-14T05:16:58.045Z,100773.03
2022-11-14T05:17:39.307Z,100777.63
2022-11-14T05:18:19.590Z,100774.19
2022-11-14T05:19:01.031Z,100769.91
2022-11-14T05:19:41.170Z,100773.34
2022-11-14T05:20:22.537Z,100768.94
2022-11-14T05:21:03.031Z,100771.56
2022-11-14T05:21:43.021Z,100767.13
2022-11-14T05:22:24.169Z,100765.22
2022-11-14T05:23:04.604Z,100773.84
2022-11-14T05:23:44.779Z,100766.78
2022-11-14T05:24:28.503Z,100768.56
2022-11-14T05:25:09.550Z,100751.88
2022-11-14T05:26:00.384Z,100760.69
2022-11-14T05:26:40.679Z,100745.31
2022-11-14T05:27:21.986Z,100766.22
2022-11-14T05:28:02.299Z,100765.47
2022-11-14T05:28:43.601Z,100764.59
2022-11-14T05:29:23.878Z,100765.13
2022-11-14T05:30:05.927Z,100753.06
2022-11-14T05:30:46.700Z,100756.38
2022-11-14T05:31:26.939Z,100766.00
2022-11-14T05:32:12.343Z,100766.91
2022-11-14T05:32:55.360Z,100762.53
2022-11-14T05:33:37.413Z,100760.88
2022-11-14T05:34:17.421Z,100756.44
2022-11-14T05:34:58.736Z,100762.53
2022-11-14T05:35:39.250Z,100756.56
2022-11-14T05:36:20.400Z,100756.56
2022-11-14T05:37:00.481Z,100761.72
2022-11-14T05:37:40.641Z,100756.47
2022-11-14T05:38:22.152Z,100761.72
2022-11-14T05:39:02.309Z,100754.72
2022-11-14T05:39:44.900Z,100748.38
2022-11-14T05:40:25.174Z,100759.00
2022-11-14T05:41:07.568Z,100754.44
2022-11-14T05:41:47.690Z,100759.88
2022-11-14T05:42:29.276Z,100753.56
2022-11-14T05:43:09.321Z,100754.47
2022-11-14T05:43:50.659Z,100753.63
2022-11-14T05:44:30.879Z,100750.09
2022-11-14T05:45:12.255Z,100745.72
2022-11-14T05:45:52.383Z,100748.22
2022-11-14T05:46:32.831Z,100746.53
2022-11-14T05:47:14.181Z,100748.22
2022-11-14T05:47:54.319Z,100740.41
2022-11-14T05:48:35.693Z,100746.44
2022-11-14T05:49:21.671Z,100742.22
2022-11-14T05:50:03.099Z,100748.31
2022-11-14T05:50:43.724Z,100742.16
2022-11-14T05:51:23.788Z,100739.44
2022-11-14T05:52:05.346Z,100735.13
2022-11-14T05:52:45.553Z,100742.16
2022-11-14T05:53:28.037Z,100734.31
2022-11-14T05:54:08.656Z,100738.69
2022-11-14T05:54:51.159Z,100732.63
2022-11-14T05:55:31.274Z,100731.50
2022-11-14T05:56:14.084Z,100733.22
2022-11-14T05:56:54.422Z,100726.16
2022-11-14T05:57:36.612Z,100735.06
2022-11-14T05:58:16.744Z,100732.47
2022-11-14T05:58:57.993Z,100736.13
2022-11-14T05:59:38.093Z,100725.94
2022-11-14T06:00:19.628Z,100731.88
2022-11-14T06:01:04.993Z,100734.78
2022-11-14T06:01:45.399Z,100731.31
2022-11-14T06:02:26.864Z,100743.72
2022-11-14T06:03:06.947Z,100727.88
2022-11-14T06:03:49.595Z,100736.94
2022-11-14T06:04:30.048Z,100725.16
2022-11-14T06:05:11.408Z,100727.56
2022-11-14T06:05:51.544Z,100722.19
2022-11-14T06:06:32.844Z,100727.47
2022-11-14T06:07:17.413Z,100724.78
2022-11-14T06:08:00.948Z,100719.63
2022-11-14T06:08:41.556Z,100732.91
2022-11-14T06:09:22.857Z,100727.56
2022-11-14T06:10:05.167Z,100717.84
2022-11-14T06:10:46.495Z,100728.34
2022-11-14T06:11:26.524Z,100724.91
2022-11-14T06:12:08.132Z,100725.28
2022-11-14T06:12:48.345Z,100720.69
2022-11-14T06:13:29.796Z,100702.28
2022-11-14T06:14:11.265Z,100720.84
2022-11-14T06:14:52.610Z,100721.72
2022-11-14T06:15:32.792Z,100721.84
2022-11-14T06:16:16.133Z,100723.47
2022-11-14T06:16:56.212Z,100720.75
2022-11-14T06:17:37.522Z,100722.50
2022-11-14T06:18:17.899Z,100719.72
2022-11-14T06:18:59.251Z,100721.38
2022-11-14T06:19:39.554Z,100723.88
2022-11-14T06:20:20.138Z,100722.97
2022-11-14T06:21:01.840Z,100720.47
2022-11-14T06:21:41.967Z,100729.97
2022-11-14T06:22:23.149Z,100721.25
2022-11-14T06:23:03.422Z,100729.19
2022-11-14T06:23:45.381Z,100729.97
2022-11-14T06:24:25.712Z,100730.81
2022-11-14T06:25:09.408Z,100731.63
2022-11-14T06:25:49.661Z,100726.28
2022-11-14T06:26:32.583Z,100724.44
2022-11-14T06:27:13.036Z,100734.88
2022-11-14T06:27:54.167Z,100739.28
2022-11-14T06:28:34.740Z,100735.94
2022-11-14T06:29:15.752Z,100729.94
2022-11-14T06:29:55.721Z,100726.28
2022-11-14T06:30:38.246Z,100734.00
2022-11-14T06:31:19.189Z,100739.41
2022-11-14T06:32:00.447Z,100738.47
2022-11-14T06:32:41.143Z,100741.06
2022-11-14T06:33:22.127Z,100741.00
2022-11-14T06:34:05.097Z,100735.81
2022-11-14T06:34:46.547Z,100745.63
2022-11-14T06:35:26.928Z,100735.03
2022-11-14T06:36:09.227Z,100744.56
2022-11-14T06:36:49.602Z,100736.94
2022-11-14T06:37:33.699Z,100741.19
2022-11-14T06:38:14.081Z,100742.88
2022-11-14T06:38:55.459Z,100741.97
2022-11-14T06:39:35.587Z,100732.97
2022-11-14T06:40:18.478Z,100739.09
2022-11-14T06:41:03.449Z,100745.13
2022-11-14T06:41:44.794Z,100748.50
2022-11-14T06:42:24.893Z,100736.16
2022-11-14T06:43:06.319Z,100743.97
2022-11-14T06:43:48.064Z,100737.78
2022-11-14T06:44:31.003Z,100744.84
2022-11-14T06:45:11.519Z,100742.31
2022-11-14T06:45:55.137Z,100744.84
2022-11-14T06:46:36.339Z,100741.34
2022-11-14T06:47:16.411Z,100749.53
2022-11-14T06:47:59.581Z,100739.34
2022-11-14T06:48:40.027Z,100745.25
2022-11-14T06:49:21.087Z,100743.34
2022-11-14T06:50:01.402Z,100741.53
2022-11-14T06:50:42.748Z,100734.47
2022-11-14T06:51:22.923Z,100748.47
2022-11-14T06:52:04.308Z,100752.13
2022-11-14T06:52:44.760Z,100747.66
2022-11-14T06:53:25.544Z,100732.06
2022-11-14T06:54:06.862Z,100749.50
2022-11-14T06:54:46.917Z,100745.25
2022-11-14T06:55:29.506Z,100752.13
2022-11-14T06:56:12.104Z,100749.34
2022-11-14T06:56:53.670Z,100726.78
2022-11-14T06:57:33.776Z,100745.69
2022-11-14T06:58:15.111Z,100749.97
2022-11-14T06:58:55.265Z,100743.78
2022-11-14T06:59:36.591Z,100747.13
2022-11-14T07:00:16.998Z,100747.13
2022-11-14T07:00:58.513Z,100733.97
2022-11-14T07:01:38.904Z,100738.41
2022-11-14T07:02:22.042Z,100736.66
2022-11-14T07:03:02.303Z,100739.13
2022-11-14T07:03:45.099Z,100745.19
2022-11-14T07:04:25.505Z,100731.06
2022-11-14T07:05:07.364Z,100742.41
2022-11-14T07:05:47.835Z,100738.88
2022-11-14T07:06:29.681Z,100735.22
2022-11-14T07:07:10.230Z,100735.16
2022-11-14T07:07:51.514Z,100737.69
2022-11-14T07:08:31.842Z,100740.25
2022-11-14T07:09:13.290Z,100736.56
2022-11-14T07:09:54.389Z,100735.63
2022-11-14T07:10:37.319Z,100741.72
2022-11-14T07:11:23.003Z,100735.47
2022-11-14T07:12:04.965Z,100738.94
2022-11-14T07:12:45.292Z,100738.88
2022-11-14T07:13:26.620Z,100731.97
2022-11-14T07:14:06.827Z,100742.28
2022-11-14T07:14:47.979Z,100739.78
2022-11-14T07:15:28.440Z,100737.00
2022-11-14T07:16:09.626Z,100729.13
2022-11-14T07:16:49.579Z,100743.88
2022-11-14T07:17:31.603Z,100744.59
2022-11-14T07:18:12.239Z,100749.84
2022-11-14T07:18:53.549Z,100742.78
2022-11-14T07:19:33.579Z,100746.22
2022-11-14T07:20:15.491Z,100735.72
2022-11-14T07:20:59.593Z,100736.56
2022-11-14T07:21:41.207Z,100736.44
2022-11-14T07:22:21.530Z,100708.69
2022-11-14T07:23:01.855Z,100732.31
2022-11-14T07:23:43.914Z,100733.25
2022-11-14T07:24:23.890Z,100738.44
2022-11-14T07:25:05.781Z,100733.13
2022-11-14T07:25:47.205Z,100727.88
2022-11-14T07:26:28.608Z,100734.03
2022-11-14T07:27:10.994Z,100729.63
2022-11-14T07:27:52.299Z,100730.50
2022-11-14T07:28:34.053Z,100731.50
2022-11-14T07:29:15.318Z,100732.44
2022-11-14T07:29:55.341Z,100734.25
2022-11-14T07:30:36.740Z,100726.22
2022-11-14T07:31:18.927Z,100729.13
2022-11-14T07:32:00.286Z,100731.56
2022-11-14T07:32:40.394Z,100733.41
2022-11-14T07:33:21.796Z,100731.69
2022-11-14T07:34:01.814Z,100732.47
2022-11-14T07:34:43.210Z,100727.13
2022-11-14T07:35:24.212Z,100726.09
2022-11-14T07:36:06.178Z,100715.63
2022-11-14T07:36:46.568Z,100739.22
2022-11-14T07:37:27.666Z,100735.66
2022-11-14T07:38:07.699Z,100741.03
2022-11-14T07:38:49.327Z,100741.09
2022-11-14T07:39:29.480Z,100749.97
2022-11-14T07:40:12.092Z,100729.66
2022-11-14T07:41:00.041Z,100748.25
2022-11-14T07:41:41.820Z,100743.81
2022-11-14T07:42:21.927Z,100734.13
2022-11-14T07:43:03.448Z,100734.03
2022-11-14T07:43:44.327Z,100746.38
2022-11-14T07:44:25.440Z,100743.91
2022-11-14T07:45:07.016Z,100734.25
2022-11-14T07:45:48.454Z,100749.13
2022-11-14T07:46:28.432Z,100740.22
2022-11-14T07:47:09.959Z,100749.94
2022-11-14T07:47:49.917Z,100748.44
2022-11-14T07:48:32.161Z,100742.47
2022-11-14T07:49:12.687Z,100738.91
2022-11-14T07:49:54.009Z,100742.44
2022-11-14T07:50:34.025Z,100740.53
2022-11-14T07:51:17.017Z,100736.88
2022-11-14T07:51:56.953Z,100735.31
2022-11-14T07:52:38.328Z,100745.69
2022-11-14T07:53:19.200Z,100747.47
2022-11-14T07:54:00.557Z,100755.22
2022-11-14T07:54:40.960Z,100742.78
2022-11-14T07:55:22.987Z,100741.91
2022-11-14T07:56:07.136Z,100752.59
2022-11-14T07:56:48.534Z,100741.09
2022-11-14T07:57:28.638Z,100747.41
2022-11-14T07:58:09.797Z,100742.16
2022-11-14T07:58:50.082Z,100747.41
2022-11-14T07:59:31.236Z,100744.00
2022-11-14T08:00:13.028Z,100737.03
2022-11-14T08:00:54.206Z,100743.88